Time;durP1;ratioP1;P1;durP2;ratioP2;P2;SDS_P1;SDS_P2;PMS_P1;PMS_P2;Temp;Humidity;BMP_temperature;BMP_pressure;BME280_temperature;BME280_humidity;BME280_pressure;Samples;Min_cycle;Max_cycle;Signal;HPM_P1;HPM_P2
2021/12/08 00:00:21;;;;;;;12.18;6.75;;;2.70;99.90;;;;;;4976003;28;20054;-77
2021/12/08 00:02:48;;;;;;;15.00;7.15;;;2.70;99.90;;;;;;4994644;28;20038;-78
2021/12/08 00:05:16;;;;;;;15.43;7.03;;;2.70;99.90;;;;;;4994191;28;20430;-78
2021/12/08 00:07:42;;;;;;;11.27;6.60;;;2.70;99.90;;;;;;4994392;28;20448;-76
2021/12/08 00:10:29;;;;;;;14.23;6.35;;;2.70;99.90;;;;;;4994500;28;20028;-77
2021/12/08 00:13:03;;;;;;;14.70;6.30;;;2.70;99.90;;;;;;4993879;28;20490;-77
2021/12/08 00:15:38;;;;;;;11.15;6.10;;;2.70;99.90;;;;;;4995523;28;20030;-78
2021/12/08 00:18:07;;;;;;;10.82;6.63;;;2.70;99.90;;;;;;4994646;28;20448;-78
2021/12/08 00:20:34;;;;;;;11.45;6.40;;;2.70;99.90;;;;;;4995150;28;20117;-77
2021/12/08 00:23:02;;;;;;;9.93;6.13;;;2.70;99.90;;;;;;4994002;28;20038;-79
2021/12/08 00:25:29;;;;;;;10.85;6.53;;;2.70;99.90;;;;;;4994121;28;20061;-78
2021/12/08 00:27:56;;;;;;;11.48;6.18;;;2.70;99.90;;;;;;4995258;28;20081;-79
2021/12/08 00:30:21;;;;;;;11.50;5.57;;;2.70;99.90;;;;;;4994074;28;20053;-79
2021/12/08 00:32:48;;;;;;;10.93;5.65;;;2.70;99.90;;;;;;4994845;28;20030;-79
2021/12/08 00:35:14;;;;;;;16.35;6.72;;;2.70;99.90;;;;;;4993612;28;20022;-79
2021/12/08 00:37:40;;;;;;;9.85;5.70;;;2.70;99.90;;;;;;4993469;28;20344;-79
2021/12/08 00:40:08;;;;;;;12.25;6.20;;;2.70;99.90;;;;;;4993814;28;20029;-78
2021/12/08 00:42:34;;;;;;;19.50;6.38;;;2.70;99.90;;;;;;4993817;28;20030;-76
2021/12/08 00:45:00;;;;;;;8.10;5.72;;;2.70;99.90;;;;;;4993660;28;20386;-78
2021/12/08 00:47:26;;;;;;;12.68;6.40;;;2.70;99.90;;;;;;4994779;28;20063;-78
2021/12/08 00:49:52;;;;;;;10.10;5.63;;;2.70;99.90;;;;;;4994004;28;20023;-76
2021/12/08 00:52:20;;;;;;;10.05;6.15;;;2.70;99.90;;;;;;5008868;28;20112;-78
2021/12/08 00:54:46;;;;;;;11.23;5.72;;;2.70;99.90;;;;;;5013405;28;20362;-78
2021/12/08 00:57:12;;;;;;;8.52;5.05;;;2.70;99.90;;;;;;5010707;28;20040;-79
2021/12/08 00:59:38;;;;;;;8.07;5.13;;;2.70;99.90;;;;;;5011720;28;20025;-78
2021/12/08 01:02:05;;;;;;;11.38;5.90;;;2.70;99.90;;;;;;5007711;28;20536;-77
2021/12/08 01:04:32;;;;;;;9.27;5.45;;;2.70;99.90;;;;;;5013128;28;20029;-79
2021/12/08 01:06:59;;;;;;;10.77;5.80;;;2.70;99.90;;;;;;5010975;28;20040;-79
2021/12/08 01:09:25;;;;;;;8.40;5.38;;;2.60;99.90;;;;;;5013307;28;20577;-78
2021/12/08 01:11:51;;;;;;;10.73;5.72;;;2.70;99.90;;;;;;5012650;28;20026;-78
2021/12/08 01:14:18;;;;;;;9.13;5.15;;;2.70;99.90;;;;;;5013171;28;20022;-78
2021/12/08 01:16:44;;;;;;;9.13;5.85;;;2.60;99.90;;;;;;5012684;28;20022;-79
2021/12/08 01:19:10;;;;;;;19.65;5.15;;;2.60;99.90;;;;;;5012644;28;20029;-78
2021/12/08 01:21:35;;;;;;;9.38;5.70;;;2.60;99.90;;;;;;5010129;28;20117;-76
2021/12/08 01:24:01;;;;;;;12.32;5.70;;;2.60;99.90;;;;;;5012691;28;20026;-79
2021/12/08 01:26:27;;;;;;;8.63;5.57;;;2.50;99.90;;;;;;5012772;28;20125;-77
2021/12/08 01:28:56;;;;;;;10.18;5.13;;;2.60;99.90;;;;;;5012848;28;20363;-78
2021/12/08 01:31:23;;;;;;;10.23;5.45;;;2.60;99.90;;;;;;5009545;28;20077;-78
2021/12/08 01:33:49;;;;;;;9.95;5.20;;;2.60;99.90;;;;;;4993084;28;20030;-78
2021/12/08 01:36:15;;;;;;;12.25;5.30;;;2.50;99.90;;;;;;4994226;28;20026;-80
2021/12/08 01:38:41;;;;;;;9.27;5.20;;;2.60;99.90;;;;;;4993027;28;20023;-78
2021/12/08 01:41:06;;;;;;;11.88;5.68;;;2.60;99.90;;;;;;4993690;28;20829;-77
2021/12/08 01:46:22;;;;;;;8.45;5.80;;;2.60;99.90;;;;;;4992352;28;20510;-79
2021/12/08 01:48:47;;;;;;;8.88;5.32;;;2.50;99.90;;;;;;4993036;28;20354;-77
2021/12/08 01:51:17;;;;;;;7.35;5.30;;;2.50;99.90;;;;;;4992615;28;20030;-78
2021/12/08 01:53:47;;;;;;;16.30;5.35;;;2.50;99.90;;;;;;4992643;28;20078;-79
2021/12/08 01:56:14;;;;;;;8.23;4.90;;;2.50;99.90;;;;;;4994570;28;20109;-78
2021/12/08 01:58:40;;;;;;;8.88;5.47;;;2.50;99.90;;;;;;4993029;28;20234;-78
2021/12/08 02:01:09;;;;;;;9.40;5.28;;;2.50;99.90;;;;;;4992815;28;20035;-79
2021/12/08 02:03:36;;;;;;;7.93;5.40;;;2.50;99.90;;;;;;4992310;28;20042;-78
2021/12/08 02:06:05;;;;;;;9.93;5.18;;;2.50;99.90;;;;;;4998959;28;20470;-78
2021/12/08 02:08:31;;;;;;;9.00;5.25;;;2.50;99.90;;;;;;5012509;28;20038;-78
2021/12/08 02:10:58;;;;;;;9.82;4.88;;;2.40;99.90;;;;;;5011123;28;20568;-77
2021/12/08 02:13:24;;;;;;;11.13;5.60;;;2.40;99.90;;;;;;4993101;28;20034;-79
2021/12/08 02:15:50;;;;;;;8.73;5.40;;;2.40;99.90;;;;;;4992122;28;20084;-78
2021/12/08 02:18:16;;;;;;;8.13;5.60;;;2.40;99.90;;;;;;4974920;28;20022;-78
2021/12/08 02:20:45;;;;;;;11.68;5.40;;;2.40;99.90;;;;;;4992869;28;20028;-79
2021/12/08 02:23:11;;;;;;;7.18;5.43;;;2.40;99.90;;;;;;4994685;28;20109;-79
2021/12/08 02:25:37;;;;;;;12.20;6.07;;;2.40;99.90;;;;;;4996179;28;20121;-78
2021/12/08 02:28:07;;;;;;;12.23;6.35;;;2.30;99.90;;;;;;4997379;28;20109;-77
2021/12/08 02:49:14;;;;;;;9.50;5.82;;;2.10;99.90;;;;;;5013649;28;20033;-77
2021/12/08 02:51:41;;;;;;;9.90;5.25;;;2.10;99.90;;;;;;5015306;28;20029;-77
2021/12/08 02:54:07;;;;;;;10.07;4.78;;;2.00;99.90;;;;;;5015430;28;20046;-79
2021/12/08 02:56:33;;;;;;;9.40;5.05;;;2.10;99.90;;;;;;4985943;28;20474;-78
2021/12/08 02:58:59;;;;;;;8.35;4.60;;;2.00;99.90;;;;;;4995724;28;20041;-78
2021/12/08 03:01:26;;;;;;;6.97;4.40;;;2.10;99.90;;;;;;4995454;28;20459;-78
2021/12/08 03:03:52;;;;;;;6.10;4.38;;;2.10;99.90;;;;;;4996413;28;20116;-79
2021/12/08 03:06:18;;;;;;;9.40;4.50;;;2.10;99.90;;;;;;4995760;28;20538;-77
2021/12/08 03:08:44;;;;;;;10.57;4.68;;;2.10;99.90;;;;;;4994686;28;20036;-76
2021/12/08 03:11:10;;;;;;;7.43;3.97;;;2.20;99.90;;;;;;4975674;28;20243;-78
2021/12/08 03:13:43;;;;;;;9.00;4.57;;;2.20;99.90;;;;;;4984506;28;20027;-77
2021/12/08 03:16:10;;;;;;;6.28;4.10;;;2.20;99.90;;;;;;4996317;28;20038;-79
2021/12/08 03:18:39;;;;;;;9.85;4.22;;;2.20;99.90;;;;;;4995131;28;20068;-78
2021/12/08 03:21:07;;;;;;;8.00;5.03;;;2.20;99.90;;;;;;4995471;28;20387;-78
2021/12/08 03:23:53;;;;;;;7.45;5.13;;;2.20;99.90;;;;;;4996207;28;20046;-78
2021/12/08 03:26:26;;;;;;;9.15;5.18;;;2.20;99.90;;;;;;4995115;28;20137;-79
2021/12/08 03:29:00;;;;;;;7.95;4.95;;;2.10;99.90;;;;;;4995061;28;20030;-78
2021/12/08 03:31:31;;;;;;;6.93;4.70;;;2.10;99.90;;;;;;4994641;28;20026;-79
2021/12/08 03:33:57;;;;;;;8.20;4.32;;;2.10;99.90;;;;;;4993139;28;20098;-79
2021/12/08 03:36:23;;;;;;;7.75;4.80;;;2.10;99.90;;;;;;4995683;28;20886;-79
2021/12/08 03:38:49;;;;;;;10.18;4.63;;;2.10;99.90;;;;;;4995273;28;20026;-78
2021/12/08 03:41:14;;;;;;;6.47;4.00;;;2.20;99.90;;;;;;4994117;28;20375;-79
2021/12/08 03:43:40;;;;;;;8.32;4.03;;;2.20;99.90;;;;;;4994774;28;20098;-77
2021/12/08 03:46:11;;;;;;;9.23;4.47;;;2.20;99.90;;;;;;4995677;28;20394;-77
2021/12/08 03:48:45;;;;;;;12.23;4.85;;;2.20;99.90;;;;;;4995089;28;20031;-79
2021/12/08 03:51:12;;;;;;;7.50;4.38;;;2.20;99.90;;;;;;4977886;28;20022;-80
2021/12/08 03:53:38;;;;;;;7.80;4.30;;;2.20;99.90;;;;;;4997185;28;20461;-79
2021/12/08 03:56:04;;;;;;;6.63;4.47;;;2.20;99.90;;;;;;4978136;28;20117;-77
2021/12/08 03:58:29;;;;;;;5.00;3.95;;;2.20;99.90;;;;;;5013662;28;20061;-77
2021/12/08 04:00:57;;;;;;;7.95;4.72;;;2.20;99.90;;;;;;5014010;28;20026;-79
2021/12/08 04:03:26;;;;;;;10.00;3.92;;;2.20;99.90;;;;;;5013785;28;20060;-77
2021/12/08 04:05:55;;;;;;;9.95;4.18;;;2.20;99.90;;;;;;5012642;28;20100;-77
2021/12/08 04:08:32;;;;;;;6.30;3.90;;;2.20;99.90;;;;;;5012780;28;20482;-79
2021/12/08 04:11:03;;;;;;;4.78;4.15;;;2.20;99.90;;;;;;5013211;28;20022;-77
2021/12/08 04:13:44;;;;;;;6.13;4.30;;;2.20;99.90;;;;;;5013893;28;20058;-78
2021/12/08 04:16:12;;;;;;;6.35;4.22;;;2.20;99.90;;;;;;5013512;28;20029;-76
2021/12/08 04:18:38;;;;;;;11.55;4.60;;;2.20;99.90;;;;;;5013365;28;20033;-78
2021/12/08 04:21:05;;;;;;;5.85;4.20;;;2.20;99.90;;;;;;5011823;28;20018;-77
2021/12/08 04:23:36;;;;;;;8.43;4.70;;;2.20;99.90;;;;;;5013233;28;20114;-76
2021/12/08 04:26:06;;;;;;;9.40;4.80;;;2.20;99.90;;;;;;5011961;28;20040;-76
2021/12/08 04:28:34;;;;;;;7.05;4.25;;;2.30;99.90;;;;;;5012552;28;20053;-77
2021/12/08 04:31:08;;;;;;;8.55;4.43;;;2.30;99.90;;;;;;5000290;28;20030;-78
2021/12/08 04:33:35;;;;;;;7.22;5.10;;;2.30;99.90;;;;;;4975710;28;20035;-78
2021/12/08 04:36:02;;;;;;;10.15;4.90;;;2.30;99.90;;;;;;4976616;28;20026;-78
2021/12/08 04:38:36;;;;;;;5.72;4.13;;;2.30;99.90;;;;;;4993990;28;20022;-78
2021/12/08 04:41:07;;;;;;;6.18;4.28;;;2.30;99.90;;;;;;4993701;28;20030;-78
2021/12/08 04:44:03;;;;;;;8.07;4.95;;;2.20;99.90;;;;;;4994062;28;20466;-78
2021/12/08 05:00:26;;;;;;;7.20;4.38;;;2.30;99.90;;;;;;4993383;28;20033;-78
2021/12/08 05:06:05;;;;;;;9.20;4.63;;;2.30;99.90;;;;;;4993128;28;20160;-78
2021/12/08 05:08:43;;;;;;;8.13;4.57;;;2.30;99.90;;;;;;4993322;28;20390;-79
2021/12/08 05:11:31;;;;;;;8.27;4.85;;;2.30;99.90;;;;;;4993550;28;20092;-79
2021/12/08 05:14:06;;;;;;;7.93;4.78;;;2.30;99.90;;;;;;4993588;28;20525;-79
2021/12/08 05:16:33;;;;;;;8.45;4.68;;;2.40;99.90;;;;;;4993019;28;20022;-79
2021/12/08 05:19:02;;;;;;;7.07;4.75;;;2.30;99.90;;;;;;4993120;28;20031;-79
2021/12/08 05:21:43;;;;;;;7.03;4.20;;;2.40;99.90;;;;;;4993951;28;20489;-78
2021/12/08 05:24:15;;;;;;;7.28;3.92;;;2.50;99.90;;;;;;4993406;28;20109;-79
2021/12/08 05:26:55;;;;;;;7.78;4.45;;;2.60;99.90;;;;;;5000280;28;20029;-79
2021/12/08 05:29:28;;;;;;;7.32;4.10;;;2.60;99.90;;;;;;5012839;28;20033;-78
2021/12/08 05:31:55;;;;;;;10.68;4.13;;;2.70;99.90;;;;;;4998625;28;20080;-78
2021/12/08 05:34:21;;;;;;;6.35;4.32;;;2.70;99.90;;;;;;4993449;28;20030;-77
2021/12/08 05:36:47;;;;;;;7.47;4.13;;;2.80;99.90;;;;;;4992958;28;20415;-79
2021/12/08 05:39:20;;;;;;;7.05;4.03;;;2.80;99.90;;;;;;4992954;28;20026;-77
2021/12/08 05:41:47;;;;;;;7.70;4.82;;;2.90;99.90;;;;;;4994292;28;20471;-78
2021/12/08 05:44:13;;;;;;;6.43;4.40;;;2.90;99.90;;;;;;4993158;28;20035;-78
2021/12/08 05:46:42;;;;;;;11.27;4.95;;;2.90;99.90;;;;;;4993260;28;20031;-78
2021/12/08 05:49:12;;;;;;;8.68;4.22;;;3.00;99.90;;;;;;4992963;28;20018;-78
2021/12/08 05:51:38;;;;;;;7.32;4.38;;;3.00;99.90;;;;;;4992140;28;20085;-77
2021/12/08 05:54:09;;;;;;;5.72;3.85;;;3.10;99.90;;;;;;4994175;28;20042;-76
2021/12/08 05:56:35;;;;;;;11.17;4.27;;;3.10;99.90;;;;;;4993962;28;20065;-77
2021/12/08 05:59:04;;;;;;;9.13;4.55;;;3.10;99.90;;;;;;4996334;28;20053;-78
2021/12/08 06:01:46;;;;;;;7.32;4.53;;;3.20;99.90;;;;;;4997639;28;20118;-77
2021/12/08 06:04:12;;;;;;;10.85;4.57;;;3.20;99.90;;;;;;5003028;28;20044;-78
2021/12/08 06:06:41;;;;;;;7.13;4.30;;;3.30;99.90;;;;;;5016571;28;20034;-77
2021/12/08 06:09:09;;;;;;;8.77;4.30;;;3.30;99.90;;;;;;5016133;28;20026;-76
2021/12/08 06:11:35;;;;;;;10.45;3.85;;;3.30;99.90;;;;;;5014032;28;20417;-76
2021/12/08 06:14:03;;;;;;;8.15;4.18;;;3.30;99.90;;;;;;5016111;28;20018;-78
2021/12/08 06:16:30;;;;;;;7.85;4.45;;;3.30;99.90;;;;;;5016297;28;20030;-78
2021/12/08 06:18:57;;;;;;;8.57;3.90;;;3.30;99.90;;;;;;4998905;28;20033;-78
2021/12/08 06:21:24;;;;;;;6.90;4.68;;;3.40;99.90;;;;;;5015820;28;20029;-77
2021/12/08 06:23:51;;;;;;;14.60;4.55;;;3.40;99.90;;;;;;5014839;28;20212;-78
2021/12/08 06:26:19;;;;;;;6.72;3.78;;;3.40;99.90;;;;;;5014090;28;20049;-76
2021/12/08 06:28:45;;;;;;;7.22;3.85;;;3.40;99.90;;;;;;5015732;28;20370;-77
2021/12/08 06:31:13;;;;;;;6.05;3.90;;;3.50;99.90;;;;;;4998126;28;20037;-78
2021/12/08 06:33:39;;;;;;;6.50;3.88;;;3.50;99.90;;;;;;5015694;28;20030;-77
2021/12/08 06:36:13;;;;;;;4.22;3.70;;;3.50;99.90;;;;;;5016157;28;20033;-78
2021/12/08 06:38:39;;;;;;;7.57;4.18;;;3.50;99.90;;;;;;5012717;28;20422;-78
2021/12/08 06:41:07;;;;;;;6.30;3.80;;;3.60;99.90;;;;;;4996285;28;20030;-77
2021/12/08 06:43:39;;;;;;;8.02;3.85;;;3.60;99.90;;;;;;4996027;28;20026;-78
2021/12/08 06:46:06;;;;;;;5.40;4.40;;;3.60;99.90;;;;;;4996005;28;20046;-78
2021/12/08 06:48:46;;;;;;;9.43;4.18;;;3.70;99.90;;;;;;4996184;28;20026;-78
2021/12/08 06:51:13;;;;;;;7.10;4.32;;;3.80;99.90;;;;;;4978631;28;20441;-77
2021/12/08 06:53:41;;;;;;;7.70;3.97;;;3.90;99.90;;;;;;4995940;28;20042;-77
2021/12/08 06:56:16;;;;;;;5.47;3.88;;;4.00;99.90;;;;;;4996735;28;20039;-77
2021/12/08 06:58:47;;;;;;;7.00;3.70;;;4.00;99.90;;;;;;5002013;28;20092;-77
2021/12/08 07:01:35;;;;;;;7.40;4.07;;;4.10;99.90;;;;;;5015046;28;20030;-77
2021/12/08 07:07:00;;;;;;;5.50;3.80;;;4.10;99.90;;;;;;5014918;28;20048;-77
2021/12/08 07:09:47;;;;;;;7.03;3.88;;;4.20;99.90;;;;;;5011870;28;20113;-76
2021/12/08 07:12:22;;;;;;;9.20;3.92;;;4.20;99.90;;;;;;4997363;28;20076;-76
2021/12/08 07:14:54;;;;;;;11.13;4.38;;;4.20;99.90;;;;;;4997489;28;20029;-78
2021/12/08 07:17:23;;;;;;;7.30;3.90;;;4.30;99.90;;;;;;5015119;28;20107;-76
2021/12/08 07:20:02;;;;;;;7.57;4.25;;;4.30;99.90;;;;;;5014857;28;20032;-77
2021/12/08 07:22:31;;;;;;;8.95;4.30;;;4.40;99.90;;;;;;4996871;28;20073;-78
2021/12/08 07:25:00;;;;;;;6.28;4.45;;;4.40;99.90;;;;;;5014385;28;20113;-77
2021/12/08 07:27:34;;;;;;;9.57;4.30;;;4.40;99.90;;;;;;5012957;28;20033;-76
2021/12/08 07:30:09;;;;;;;8.10;4.55;;;4.50;99.90;;;;;;5014854;28;20501;-78
2021/12/08 07:32:37;;;;;;;7.80;4.25;;;4.60;99.90;;;;;;5014584;28;20748;-78
2021/12/08 07:35:10;;;;;;;8.77;5.38;;;4.60;99.90;;;;;;5014743;28;20029;-79
2021/12/08 07:37:37;;;;;;;10.35;4.53;;;4.70;99.90;;;;;;4980804;28;20084;-78
2021/12/08 07:40:16;;;;;;;9.70;4.85;;;4.70;99.90;;;;;;5010570;28;20042;-78
2021/12/08 07:42:47;;;;;;;16.23;4.05;;;4.80;99.90;;;;;;4995377;28;20049;-76
2021/12/08 07:45:17;;;;;;;7.78;4.22;;;4.90;99.90;;;;;;4994766;28;20030;-77
2021/12/08 07:47:43;;;;;;;10.05;4.13;;;4.90;99.90;;;;;;4994739;28;20030;-77
2021/12/08 07:50:28;;;;;;;8.15;4.25;;;5.00;99.90;;;;;;4995121;28;20034;-78
2021/12/08 07:52:55;;;;;;;8.23;3.63;;;5.00;99.90;;;;;;4994561;28;20050;-78
2021/12/08 07:55:29;;;;;;;6.28;4.07;;;5.10;99.90;;;;;;4994185;28;20018;-78
2021/12/08 07:57:56;;;;;;;12.95;4.53;;;5.10;99.90;;;;;;4993521;28;20431;-78
2021/12/08 08:00:36;;;;;;;5.40;3.85;;;5.20;99.90;;;;;;4994576;28;20030;-78
2021/12/08 08:03:04;;;;;;;12.45;4.50;;;5.20;99.90;;;;;;4994641;28;20022;-77
2021/12/08 08:05:32;;;;;;;8.10;4.47;;;5.20;99.90;;;;;;4994420;28;20061;-77
2021/12/08 08:08:02;;;;;;;12.30;3.95;;;5.30;99.90;;;;;;4994282;28;20033;-77
2021/12/08 08:10:30;;;;;;;7.70;4.50;;;5.40;99.90;;;;;;4994358;28;20030;-77
2021/12/08 08:13:02;;;;;;;8.60;5.00;;;5.50;99.90;;;;;;4994237;28;20470;-78
2021/12/08 08:15:35;;;;;;;15.63;7.25;;;5.70;99.90;;;;;;4994372;28;20530;-78
2021/12/08 08:18:06;;;;;;;17.63;7.22;;;5.90;99.90;;;;;;4994387;28;20026;-78
2021/12/08 08:20:37;;;;;;;7.63;4.43;;;6.00;99.90;;;;;;4993803;28;20033;-78
2021/12/08 08:23:04;;;;;;;20.95;4.95;;;6.10;99.90;;;;;;4994008;28;20117;-77
2021/12/08 08:25:34;;;;;;;10.40;5.07;;;6.10;99.90;;;;;;4995570;28;20042;-78
2021/12/08 08:28:02;;;;;;;8.40;5.22;;;6.10;99.90;;;;;;5013398;28;20037;-77
2021/12/08 08:30:42;;;;;;;13.25;4.72;;;6.00;99.90;;;;;;5013647;28;20041;-77
2021/12/08 08:33:08;;;;;;;9.73;4.93;;;6.10;99.90;;;;;;4996576;28;20026;-79
2021/12/08 08:35:42;;;;;;;11.77;5.53;;;6.10;99.90;;;;;;5005239;28;20129;-77
2021/12/08 08:38:13;;;;;;;8.43;5.45;;;6.10;99.90;;;;;;4997401;28;20022;-76
2021/12/08 08:40:49;;;;;;;12.10;6.20;;;6.10;99.90;;;;;;4976477;28;20033;-76
2021/12/08 08:43:15;;;;;;;15.27;5.78;;;6.20;99.90;;;;;;4997932;28;20030;-76
2021/12/08 08:45:54;;;;;;;9.15;5.10;;;6.30;99.90;;;;;;4993488;28;20038;-81
2021/12/08 08:48:31;;;;;;;8.77;5.05;;;6.50;99.90;;;;;;4992928;28;20037;-78
2021/12/08 08:51:11;;;;;;;8.00;4.07;;;6.70;99.90;;;;;;4992850;28;20022;-78
2021/12/08 08:53:40;;;;;;;19.60;5.10;;;6.80;99.90;;;;;;4992640;28;20042;-76
2021/12/08 08:56:25;;;;;;;10.60;4.07;;;7.00;99.90;;;;;;4994396;28;20115;-77
2021/12/08 08:58:54;;;;;;;8.05;4.60;;;7.20;99.90;;;;;;4993794;28;20035;-78
2021/12/08 09:01:33;;;;;;;6.55;4.38;;;7.40;99.90;;;;;;4999253;28;20049;-78
2021/12/08 09:04:28;;;;;;;5.85;3.65;;;7.70;99.90;;;;;;4973876;28;20053;-76
2021/12/08 09:06:57;;;;;;;10.60;4.57;;;8.00;99.90;;;;;;4974355;28;20153;-76
2021/12/08 09:09:28;;;;;;;6.68;3.60;;;8.40;99.90;;;;;;4993529;28;20030;-76
2021/12/08 09:12:01;;;;;;;9.32;3.72;;;8.40;99.90;;;;;;4989386;28;20096;-78
2021/12/08 09:14:29;;;;;;;10.45;3.97;;;8.50;99.90;;;;;;4982327;28;20471;-78
2021/12/08 09:17:00;;;;;;;10.55;4.05;;;8.60;99.90;;;;;;4993192;28;20038;-78
2021/12/08 09:19:35;;;;;;;9.17;4.03;;;8.50;99.90;;;;;;4976893;28;20022;-78
2021/12/08 09:22:18;;;;;;;7.75;3.03;;;8.40;99.90;;;;;;4993629;28;20026;-79
2021/12/08 09:24:46;;;;;;;7.28;3.50;;;8.50;99.90;;;;;;4992709;28;20057;-78
2021/12/08 09:27:18;;;;;;;6.70;3.58;;;8.50;99.90;;;;;;4997530;28;20030;-78
2021/12/08 09:29:50;;;;;;;38.50;17.30;;;8.50;99.90;;;;;;4991501;28;20034;-77
2021/12/08 09:32:21;;;;;;;18.38;10.10;;;8.50;99.90;;;;;;4991818;28;20027;-78
2021/12/08 09:34:57;;;;;;;5.68;3.33;;;8.40;99.90;;;;;;4992580;28;20110;-77
2021/12/08 09:37:32;;;;;;;18.95;8.75;;;8.50;99.90;;;;;;4992698;28;20030;-78
2021/12/08 09:40:06;;;;;;;6.60;3.40;;;8.40;99.90;;;;;;4990659;28;20483;-78
2021/12/08 09:42:44;;;;;;;9.57;3.63;;;8.40;99.90;;;;;;4992146;28;20038;-78
2021/12/08 09:45:21;;;;;;;5.30;3.67;;;8.30;99.90;;;;;;4992037;28;20054;-78
2021/12/08 09:47:47;;;;;;;5.57;3.35;;;8.30;99.90;;;;;;4992948;28;20038;-78
2021/12/08 09:50:15;;;;;;;7.20;3.42;;;8.30;99.90;;;;;;4975386;28;20022;-79
2021/12/08 09:52:43;;;;;;;6.95;4.38;;;8.30;99.90;;;;;;4991393;28;20042;-79
2021/12/08 09:55:16;;;;;;;11.98;4.80;;;8.40;99.90;;;;;;4991481;28;20061;-79
2021/12/08 09:57:43;;;;;;;11.80;5.40;;;8.50;99.90;;;;;;4991150;28;20026;-80
2021/12/08 10:00:15;;;;;;;8.40;4.97;;;8.50;99.90;;;;;;4992511;28;20018;-79
2021/12/08 10:02:41;;;;;;;6.20;4.40;;;8.50;99.90;;;;;;4991557;28;20098;-80
2021/12/08 10:05:13;;;;;;;10.18;4.55;;;8.60;99.90;;;;;;4992329;28;20546;-79
2021/12/08 10:07:40;;;;;;;9.18;4.10;;;8.70;99.90;;;;;;4992844;28;20061;-79
2021/12/08 10:10:09;;;;;;;16.73;4.22;;;8.70;99.90;;;;;;4992155;28;20038;-79
2021/12/08 10:12:37;;;;;;;7.97;4.30;;;8.80;99.90;;;;;;4993795;28;20109;-80
2021/12/08 10:15:06;;;;;;;9.88;3.97;;;8.80;99.90;;;;;;4991724;28;20382;-80
2021/12/08 10:17:33;;;;;;;14.18;4.78;;;8.70;99.90;;;;;;4993589;28;20030;-90
2021/12/08 10:20:07;;;;;;;19.63;9.85;;;8.70;99.90;;;;;;4993049;28;20029;-80
2021/12/08 10:22:33;;;;;;;11.60;7.22;;;8.70;99.90;;;;;;4991336;28;20375;-79
2021/12/08 10:25:07;;;;;;;12.18;5.72;;;8.60;99.90;;;;;;4992263;28;20081;-80
2021/12/08 10:28:04;;;;;;;14.15;6.03;;;8.50;99.90;;;;;;4991985;28;20034;-79
2021/12/08 10:30:47;;;;;;;14.02;5.18;;;8.50;99.90;;;;;;4990288;28;20050;-81
2021/12/08 10:34:24;;;;;;;10.60;4.47;;;8.50;99.90;;;;;;4989030;28;20022;-79
2021/12/08 10:39:19;;;;;;;7.78;3.53;;;8.50;99.90;;;;;;4991982;28;20603;-82
2021/12/08 10:42:04;;;;;;;6.95;4.72;;;8.60;99.90;;;;;;4989036;28;20375;-75
2021/12/08 10:44:49;;;;;;;18.73;5.80;;;8.80;99.90;;;;;;4994437;28;20475;-73
2021/12/08 10:47:24;;;;;;;18.73;6.65;;;8.90;99.90;;;;;;4995390;28;20034;-74
2021/12/08 10:55:55;;;;;;;8.77;4.53;;;9.20;99.90;;;;;;4991326;28;20065;-72
2021/12/08 10:58:26;;;;;;;8.05;3.83;;;9.10;99.90;;;;;;4993355;28;20049;-74
2021/12/08 11:00:54;;;;;;;22.73;17.30;;;9.10;99.90;;;;;;4994222;28;20062;-72
2021/12/08 11:03:20;;;;;;;33.00;17.67;;;9.20;99.90;;;;;;4995331;28;20022;-72
2021/12/08 11:05:53;;;;;;;19.35;9.25;;;9.20;99.90;;;;;;4982648;28;20070;-72
2021/12/08 11:08:24;;;;;;;11.75;5.57;;;9.20;99.90;;;;;;4994224;28;20073;-71
2021/12/08 11:11:10;;;;;;;15.27;6.47;;;9.20;99.90;;;;;;4999890;28;20018;-73
2021/12/08 11:13:39;;;;;;;14.60;5.07;;;9.20;99.90;;;;;;4994391;28;20057;-72
2021/12/08 11:16:07;;;;;;;23.80;10.70;;;9.20;99.90;;;;;;4993903;28;20068;-72
2021/12/08 11:18:39;;;;;;;32.50;22.88;;;9.10;99.90;;;;;;4992873;28;20049;-75
2021/12/08 11:21:14;;;;;;;8.95;5.07;;;9.20;99.90;;;;;;4993708;28;20018;-74
2021/12/08 11:23:52;;;;;;;100.93;79.70;;;9.20;99.90;;;;;;4991203;28;20057;-82
2021/12/08 11:26:30;;;;;;;93.63;64.97;;;9.30;99.90;;;;;;4991196;28;20038;-77
2021/12/08 11:29:18;;;;;;;45.38;33.08;;;9.30;99.90;;;;;;4992446;28;20101;-73
2021/12/08 11:31:48;;;;;;;9.93;6.68;;;9.30;99.90;;;;;;4993955;28;20018;-80
2021/12/08 11:34:14;;;;;;;12.02;4.88;;;9.40;99.90;;;;;;4993110;28;20494;-74
2021/12/08 11:36:41;;;;;;;9.20;4.65;;;9.40;99.90;;;;;;4994178;28;20037;-74
2021/12/08 11:39:19;;;;;;;3.67;2.70;;;9.40;99.90;;;;;;4975682;28;20029;-76
2021/12/08 11:41:48;;;;;;;13.48;6.72;;;9.50;99.90;;;;;;4992489;28;20022;-75
2021/12/08 11:44:20;;;;;;;8.23;5.63;;;9.50;99.90;;;;;;4991877;28;20033;-74
2021/12/08 11:46:51;;;;;;;18.80;10.98;;;9.50;99.90;;;;;;4993758;28;20034;-76
2021/12/08 11:49:17;;;;;;;6.80;2.97;;;9.50;99.90;;;;;;5007216;28;20030;-77
2021/12/08 11:51:44;;;;;;;3.65;2.38;;;9.50;99.90;;;;;;4990081;28;20027;-73
2021/12/08 11:54:35;;;;;;;2.72;2.22;;;9.50;99.90;;;;;;4973292;28;20042;-76
2021/12/08 11:57:33;;;;;;;6.97;4.47;;;9.50;99.90;;;;;;4999275;22;20391;-73
2021/12/08 11:59:59;;;;;;;18.63;12.23;;;9.40;99.90;;;;;;5009163;28;20531;-74
2021/12/08 12:02:39;;;;;;;3.45;3.15;;;9.40;99.90;;;;;;5011140;28;20030;-76
2021/12/08 12:05:09;;;;;;;9.88;7.55;;;9.40;99.90;;;;;;4994732;28;20381;-77
2021/12/08 12:07:35;;;;;;;9.85;3.63;;;9.50;99.90;;;;;;5012419;28;20029;-73
2021/12/08 12:10:03;;;;;;;22.08;15.10;;;9.50;99.90;;;;;;5013138;28;20386;-74
2021/12/08 12:12:28;;;;;;;4.53;2.42;;;9.50;99.90;;;;;;5013306;28;20489;-76
2021/12/08 12:14:54;;;;;;;8.95;5.57;;;9.50;99.90;;;;;;5012931;28;20026;-76
2021/12/08 12:17:20;;;;;;;11.40;6.70;;;9.50;99.90;;;;;;5012579;28;20026;-76
2021/12/08 12:19:55;;;;;;;10.00;5.38;;;9.50;99.90;;;;;;5005714;28;20029;-75
2021/12/08 12:22:48;;;;;;;3.92;2.40;;;9.50;99.90;;;;;;5010647;28;20030;-76
2021/12/08 12:25:22;;;;;;;8.43;5.97;;;9.60;99.90;;;;;;5012683;28;20026;-76
2021/12/08 12:28:14;;;;;;;3.55;2.65;;;9.60;99.90;;;;;;5012381;28;20105;-75
2021/12/08 12:31:19;;;;;;;15.18;8.32;;;9.60;99.90;;;;;;5012671;28;20802;-74
2021/12/08 12:33:47;;;;;;;12.85;5.22;;;9.60;99.90;;;;;;5011823;28;20025;-74
2021/12/08 12:36:28;;;;;;;8.35;4.63;;;9.60;99.90;;;;;;5010425;28;20026;-74
2021/12/08 12:39:11;;;;;;;38.20;17.05;;;9.60;99.90;;;;;;5013619;28;20034;-75
2021/12/08 12:41:37;;;;;;;8.05;3.65;;;9.60;99.90;;;;;;5009181;28;20030;-73
2021/12/08 12:44:22;;;;;;;4.88;2.30;;;9.50;99.90;;;;;;5011249;28;20462;-74
2021/12/08 12:47:11;;;;;;;3.47;2.33;;;9.50;99.90;;;;;;5011043;28;20085;-76
2021/12/08 12:49:39;;;;;;;14.70;5.53;;;9.50;99.90;;;;;;5010998;28;20105;-74
2021/12/08 12:52:09;;;;;;;7.38;3.90;;;9.50;99.90;;;;;;5011753;28;20111;-75
2021/12/08 12:54:35;;;;;;;38.65;15.80;;;9.50;99.90;;;;;;5012269;28;20126;-77
2021/12/08 12:57:03;;;;;;;89.90;38.28;;;9.50;99.90;;;;;;5011831;28;20107;-74
2021/12/08 12:59:51;;;;;;;53.72;20.95;;;9.50;99.90;;;;;;5012346;28;20096;-75
2021/12/08 13:02:34;;;;;;;14.10;7.32;;;9.50;99.90;;;;;;5012115;28;20030;-74
2021/12/08 13:05:09;;;;;;;12.88;4.22;;;9.50;99.90;;;;;;5012142;28;20026;-74
2021/12/08 13:07:39;;;;;;;5.45;3.15;;;9.40;99.90;;;;;;5010747;28;20033;-74
2021/12/08 13:10:17;;;;;;;4.38;2.85;;;9.40;99.90;;;;;;5006256;28;20101;-75
2021/12/08 13:12:44;;;;;;;7.85;2.53;;;9.40;99.90;;;;;;4980162;28;20017;-77
2021/12/08 13:15:19;;;;;;;23.48;10.02;;;9.40;99.90;;;;;;5012138;28;20030;-77
2021/12/08 13:18:11;;;;;;;8.68;3.67;;;9.40;99.90;;;;;;5011907;28;20044;-74
2021/12/08 13:20:43;;;;;;;8.27;4.28;;;9.40;99.90;;;;;;4992976;28;20029;-77
2021/12/08 13:23:11;;;;;;;8.52;4.55;;;9.40;99.90;;;;;;5011553;28;20033;-75
2021/12/08 13:28:30;;;;;;;8.77;3.67;;;9.40;99.90;;;;;;5010997;28;20038;-81
2021/12/08 13:31:19;;;;;;;22.05;9.85;;;9.40;99.90;;;;;;5009106;28;20164;-74
2021/12/08 13:34:08;;;;;;;3.40;2.38;;;9.40;99.90;;;;;;5011125;28;20096;-80
2021/12/08 13:36:37;;;;;;;16.55;7.13;;;9.50;99.90;;;;;;4996738;28;20049;-75
2021/12/08 13:39:21;;;;;;;11.00;3.17;;;9.50;99.90;;;;;;5008320;28;20033;-73
2021/12/08 13:42:03;;;;;;;30.23;12.40;;;9.50;99.90;;;;;;5009982;28;20030;-80
2021/12/08 13:44:36;;;;;;;3.97;2.83;;;9.50;99.90;;;;;;5009288;28;20473;-80
2021/12/08 13:47:26;;;;;;;22.45;9.25;;;9.40;99.90;;;;;;5005120;28;20044;-72
2021/12/08 13:49:55;;;;;;;24.98;10.98;;;9.50;99.90;;;;;;5009047;28;20507;-71
2021/12/08 13:52:23;;;;;;;56.70;30.40;;;9.40;99.90;;;;;;5009417;28;20030;-79
2021/12/08 13:54:55;;;;;;;11.82;7.30;;;9.40;99.90;;;;;;5010143;28;20030;-77
2021/12/08 13:57:40;;;;;;;11.23;7.13;;;9.30;99.90;;;;;;5009998;28;20030;-76
2021/12/08 14:00:09;;;;;;;10.40;5.72;;;9.30;99.90;;;;;;5009849;28;20033;-80
2021/12/08 14:02:38;;;;;;;10.73;6.95;;;9.20;99.90;;;;;;5010255;28;20100;-79
2021/12/08 14:05:11;;;;;;;11.18;4.35;;;9.20;99.90;;;;;;5010558;28;20037;-80
2021/12/08 14:07:42;;;;;;;6.07;3.85;;;9.00;99.90;;;;;;5010042;28;20040;-72